Time;durP1;ratioP1;P1;durP2;ratioP2;P2;SDS_P1;SDS_P2;PMS_P1;PMS_P2;Temp;Humidity;BMP_temperature;BMP_pressure;BME280_temperature;BME280_humidity;BME280_pressure;Samples;Min_cycle;Max_cycle;Signal;HPM_P1;HPM_P2
2022/01/11 00:00:25;;;;;;;12.60;8.65;;;2.80;99.90;;;;;;5056029;28;20509;-66
2022/01/11 00:02:53;;;;;;;13.15;7.40;;;2.80;99.90;;;;;;5061556;28;20173;-67
2022/01/11 00:05:31;;;;;;;13.40;7.85;;;2.80;99.90;;;;;;5075913;28;20200;-65
2022/01/11 00:07:57;;;;;;;8.98;7.45;;;2.80;99.90;;;;;;5075640;28;20188;-66
2022/01/11 00:10:30;;;;;;;17.20;7.67;;;2.80;99.90;;;;;;5076028;28;20173;-67
2022/01/11 00:12:57;;;;;;;13.02;9.50;;;2.80;99.90;;;;;;5075218;28;20410;-65
2022/01/11 00:15:24;;;;;;;14.75;6.93;;;2.90;99.90;;;;;;5075646;28;20173;-68
2022/01/11 00:17:50;;;;;;;18.13;8.65;;;2.80;99.90;;;;;;5075709;28;20606;-66
2022/01/11 00:20:18;;;;;;;9.75;8.57;;;2.90;99.90;;;;;;5075634;28;20570;-66
2022/01/11 00:25:46;;;;;;;11.93;9.10;;;3.00;99.90;;;;;;5075567;28;20168;-66
2022/01/11 00:28:14;;;;;;;6.60;5.78;;;3.00;99.90;;;;;;5075280;28;20193;-67
2022/01/11 00:30:42;;;;;;;12.57;10.10;;;2.90;99.90;;;;;;5073463;28;20176;-66
2022/01/11 00:33:13;;;;;;;16.23;10.25;;;3.00;99.90;;;;;;5075105;28;20181;-67
2022/01/11 00:35:49;;;;;;;11.38;7.97;;;2.90;99.90;;;;;;5075492;28;20203;-66
2022/01/11 00:38:18;;;;;;;13.75;8.30;;;2.90;99.90;;;;;;5075149;28;20247;-67
2022/01/11 00:40:52;;;;;;;10.52;7.32;;;2.80;99.90;;;;;;5075115;28;20635;-65
2022/01/11 00:43:20;;;;;;;9.23;7.82;;;2.70;99.90;;;;;;5074893;28;20218;-67
2022/01/11 00:45:46;;;;;;;12.05;7.95;;;2.70;99.90;;;;;;5075132;28;20219;-67
2022/01/11 00:48:13;;;;;;;11.40;7.60;;;2.80;99.90;;;;;;5073686;28;20270;-66
2022/01/11 00:50:39;;;;;;;11.15;6.07;;;2.80;99.90;;;;;;5075020;28;20181;-66
2022/01/11 00:53:05;;;;;;;12.85;6.88;;;2.80;99.90;;;;;;5074697;28;20181;-63
2022/01/11 00:55:32;;;;;;;13.52;8.57;;;2.80;99.90;;;;;;5075013;28;20192;-65
2022/01/11 00:57:58;;;;;;;14.73;9.05;;;2.90;99.90;;;;;;5074850;28;20588;-65
2022/01/11 01:00:25;;;;;;;9.07;5.50;;;2.80;99.90;;;;;;5074565;28;20272;-66
2022/01/11 01:02:50;;;;;;;9.13;6.43;;;2.80;99.90;;;;;;5068076;28;20170;-67
2022/01/11 01:05:17;;;;;;;7.60;6.50;;;2.80;99.90;;;;;;5054719;28;20219;-67
2022/01/11 01:07:47;;;;;;;12.68;8.40;;;2.80;99.90;;;;;;5054427;28;20419;-66
2022/01/11 01:10:58;;;;;;;6.68;6.20;;;2.80;99.90;;;;;;5053290;28;20578;-67
2022/01/11 01:12:59;;;;;;;10.15;6.80;;;2.80;99.90;;;;;;5046776;28;20177;-65
2022/01/11 01:15:26;;;;;;;9.63;7.57;;;2.80;99.90;;;;;;5054575;28;20181;-67
2022/01/11 01:17:53;;;;;;;9.38;8.40;;;2.80;99.90;;;;;;5054290;28;20201;-65
2022/01/11 01:20:19;;;;;;;12.35;8.23;;;2.90;99.90;;;;;;5054554;28;20168;-67
2022/01/11 01:22:50;;;;;;;9.43;7.50;;;2.90;99.90;;;;;;5054030;28;20182;-66
2022/01/11 01:25:20;;;;;;;8.80;6.43;;;2.90;99.90;;;;;;5054524;28;20169;-67
2022/01/11 01:27:47;;;;;;;10.60;8.02;;;3.00;99.90;;;;;;5054101;28;20201;-65
2022/01/11 01:30:14;;;;;;;11.30;7.78;;;3.10;99.90;;;;;;5054281;28;20177;-66
2022/01/11 01:32:40;;;;;;;12.60;8.13;;;3.00;99.90;;;;;;5054090;28;20252;-67
2022/01/11 01:35:06;;;;;;;10.17;7.70;;;3.00;99.90;;;;;;5054191;28;20266;-65
2022/01/11 01:37:32;;;;;;;9.15;6.53;;;3.00;99.90;;;;;;5054200;28;20201;-65
2022/01/11 01:39:58;;;;;;;20.60;7.83;;;2.90;99.90;;;;;;5053984;28;20520;-66
2022/01/11 01:42:28;;;;;;;11.50;6.03;;;2.90;99.90;;;;;;5053797;28;20223;-65
2022/01/11 01:44:54;;;;;;;7.78;6.40;;;2.90;99.90;;;;;;5053418;28;20165;-66
2022/01/11 01:47:20;;;;;;;10.07;6.87;;;2.80;99.90;;;;;;5053511;28;20185;-65
2022/01/11 01:49:46;;;;;;;10.83;7.83;;;2.80;99.90;;;;;;5053706;28;20404;-67
2022/01/11 01:52:14;;;;;;;11.32;7.68;;;2.80;99.90;;;;;;5053341;28;20418;-65
2022/01/11 01:54:40;;;;;;;8.75;7.55;;;2.80;99.90;;;;;;5053622;28;20608;-67
2022/01/11 01:57:06;;;;;;;13.30;8.95;;;2.80;99.90;;;;;;5053593;28;20618;-65
2022/01/11 01:59:32;;;;;;;9.77;7.67;;;2.80;99.90;;;;;;5053626;28;20165;-65
2022/01/11 02:01:58;;;;;;;12.37;6.70;;;2.70;99.90;;;;;;5053338;28;20400;-67
2022/01/11 02:04:24;;;;;;;9.50;7.20;;;2.70;99.90;;;;;;5072329;28;20429;-67
2022/01/11 02:06:50;;;;;;;13.23;7.80;;;2.80;99.90;;;;;;5073542;28;20201;-67
2022/01/11 02:09:16;;;;;;;12.83;8.47;;;2.70;99.90;;;;;;5073592;28;20411;-67
2022/01/11 02:11:41;;;;;;;14.50;10.77;;;2.70;99.90;;;;;;5073236;28;20184;-67
2022/01/11 02:14:08;;;;;;;11.07;8.17;;;2.70;99.90;;;;;;5073398;28;20411;-67
2022/01/11 02:16:33;;;;;;;6.75;5.57;;;2.70;99.90;;;;;;5073214;28;20498;-66
2022/01/11 02:18:59;;;;;;;6.63;5.73;;;2.70;99.90;;;;;;5073601;28;20245;-67
2022/01/11 02:21:25;;;;;;;13.27;8.73;;;2.70;99.90;;;;;;5072960;28;20663;-66
2022/01/11 02:23:51;;;;;;;8.87;7.27;;;2.70;99.90;;;;;;5073593;28;20171;-67
2022/01/11 02:26:18;;;;;;;18.65;8.18;;;2.70;99.90;;;;;;5073366;28;20233;-66
2022/01/11 02:28:44;;;;;;;8.15;7.35;;;2.80;99.90;;;;;;5073231;28;20173;-67
2022/01/11 02:31:12;;;;;;;8.70;7.20;;;2.80;99.90;;;;;;5073171;28;20176;-66
2022/01/11 02:33:58;;;;;;;9.63;6.88;;;2.70;99.90;;;;;;5073452;28;20411;-66
2022/01/11 02:36:30;;;;;;;7.53;6.88;;;2.80;99.90;;;;;;5073247;28;20261;-66
2022/01/11 02:38:57;;;;;;;9.55;6.55;;;2.80;99.90;;;;;;5073208;28;20200;-67
2022/01/11 02:41:26;;;;;;;12.60;10.20;;;2.80;99.90;;;;;;5073011;28;20172;-66
2022/01/11 02:43:52;;;;;;;8.98;7.80;;;2.80;99.90;;;;;;5073271;28;20177;-66
2022/01/11 02:46:20;;;;;;;15.03;9.33;;;2.80;99.90;;;;;;5073397;28;20180;-65
2022/01/11 02:48:55;;;;;;;10.60;8.60;;;2.80;99.90;;;;;;5073013;28;20180;-66
2022/01/11 02:51:22;;;;;;;8.00;6.38;;;2.80;99.90;;;;;;5072823;28;20157;-66
2022/01/11 02:53:50;;;;;;;10.40;7.70;;;2.90;99.90;;;;;;5076292;28;20182;-65
2022/01/11 02:56:18;;;;;;;8.50;7.60;;;2.90;99.90;;;;;;5077001;28;20204;-67
2022/01/11 02:58:43;;;;;;;17.90;9.20;;;2.90;99.90;;;;;;5077300;28;20227;-65
2022/01/11 03:01:10;;;;;;;9.43;8.00;;;2.90;99.90;;;;;;5076753;28;20243;-66
2022/01/11 03:03:37;;;;;;;9.95;7.15;;;2.90;99.90;;;;;;5064565;28;20191;-66
2022/01/11 03:06:03;;;;;;;12.05;7.68;;;2.90;99.90;;;;;;5056501;28;20169;-66
2022/01/11 03:08:33;;;;;;;8.30;6.65;;;2.90;99.90;;;;;;5056841;28;20181;-67
2022/01/11 03:11:00;;;;;;;12.55;7.60;;;2.90;99.90;;;;;;5056784;28;20197;-67
2022/01/11 03:13:26;;;;;;;11.43;8.35;;;2.90;99.90;;;;;;5056972;28;20181;-66
2022/01/11 03:15:53;;;;;;;6.57;5.40;;;2.90;99.90;;;;;;5057044;28;20247;-65
2022/01/11 03:18:20;;;;;;;7.70;7.03;;;2.90;99.90;;;;;;5055922;28;20488;-66
2022/01/11 03:20:47;;;;;;;15.15;10.70;;;2.80;99.90;;;;;;5057534;28;20169;-65
2022/01/11 03:23:14;;;;;;;11.20;10.00;;;2.80;99.90;;;;;;5057703;28;20177;-67
2022/01/11 03:25:41;;;;;;;22.90;8.88;;;2.80;99.90;;;;;;5058325;28;20173;-66
2022/01/11 03:28:06;;;;;;;15.98;9.07;;;2.70;99.90;;;;;;5057689;28;20200;-65
2022/01/11 03:30:33;;;;;;;13.50;10.03;;;2.70;99.90;;;;;;5057436;28;20476;-66
2022/01/11 03:32:59;;;;;;;23.33;11.10;;;2.70;99.90;;;;;;5056854;28;20202;-66
2022/01/11 03:35:26;;;;;;;8.95;8.05;;;2.70;99.90;;;;;;5056997;28;20532;-66
2022/01/11 03:37:53;;;;;;;10.85;8.85;;;2.70;99.90;;;;;;5055842;28;20293;-66
2022/01/11 03:40:21;;;;;;;10.45;8.75;;;2.70;99.90;;;;;;5057282;28;20223;-63
2022/01/11 03:42:47;;;;;;;28.35;9.30;;;2.80;99.90;;;;;;5056548;28;20169;-66
2022/01/11 03:45:15;;;;;;;12.10;8.50;;;2.80;99.90;;;;;;5056479;28;20252;-63
2022/01/11 03:47:41;;;;;;;14.20;9.93;;;2.80;99.90;;;;;;5056044;28;20800;-65
2022/01/11 03:50:09;;;;;;;12.15;8.60;;;2.80;99.90;;;;;;5056110;28;20165;-67
2022/01/11 03:52:35;;;;;;;13.63;10.18;;;2.80;99.90;;;;;;5055669;28;20223;-66
2022/01/11 03:55:05;;;;;;;16.80;9.33;;;2.80;99.90;;;;;;5056240;28;20181;-65
2022/01/11 03:57:32;;;;;;;9.73;8.30;;;2.80;99.90;;;;;;5055716;28;20490;-66
2022/01/11 04:00:00;;;;;;;15.68;10.65;;;2.80;99.90;;;;;;5056006;28;20173;-65
2022/01/11 04:02:26;;;;;;;13.95;10.63;;;2.80;99.90;;;;;;5058112;28;20547;-66
2022/01/11 04:04:52;;;;;;;10.73;8.52;;;2.80;99.90;;;;;;5074650;28;20185;-66
2022/01/11 04:07:24;;;;;;;13.27;10.13;;;2.80;99.90;;;;;;5075897;28;20713;-66
2022/01/11 04:09:51;;;;;;;13.77;8.13;;;2.80;99.90;;;;;;5075946;28;20585;-66
2022/01/11 04:12:17;;;;;;;11.63;8.13;;;2.90;99.90;;;;;;5075295;28;20226;-67
2022/01/11 04:14:43;;;;;;;11.95;8.70;;;2.90;99.90;;;;;;5075675;28;20599;-67
2022/01/11 04:17:09;;;;;;;12.35;8.10;;;2.90;99.90;;;;;;5075392;28;20215;-65
2022/01/11 04:19:35;;;;;;;15.45;9.30;;;2.80;99.90;;;;;;5075737;28;20259;-65
2022/01/11 04:22:00;;;;;;;12.53;7.33;;;2.80;99.90;;;;;;5075297;28;20596;-65
2022/01/11 04:24:26;;;;;;;12.40;9.63;;;2.90;99.90;;;;;;5075317;28;20261;-64
2022/01/11 04:26:52;;;;;;;10.37;9.00;;;2.90;99.90;;;;;;5075553;28;20318;-65
2022/01/11 04:29:18;;;;;;;9.60;7.50;;;2.90;99.90;;;;;;5075388;28;20415;-67
2022/01/11 04:31:44;;;;;;;12.80;7.33;;;2.90;99.90;;;;;;5075115;28;20414;-66
2022/01/11 04:34:09;;;;;;;10.25;9.25;;;2.80;99.90;;;;;;5075098;28;20537;-66
2022/01/11 04:36:36;;;;;;;12.40;7.87;;;2.80;99.90;;;;;;5075193;28;20237;-66
2022/01/11 04:39:04;;;;;;;12.07;7.68;;;2.80;99.90;;;;;;5075236;28;20169;-65
2022/01/11 04:41:30;;;;;;;27.73;7.97;;;2.80;99.90;;;;;;5074756;28;20187;-65
2022/01/11 04:43:56;;;;;;;10.17;8.30;;;2.70;99.90;;;;;;5075142;28;20168;-65
2022/01/11 04:46:22;;;;;;;11.83;8.63;;;2.80;99.90;;;;;;5075148;28;20204;-67
2022/01/11 04:48:48;;;;;;;9.17;6.20;;;2.80;99.90;;;;;;5074975;28;20165;-65
2022/01/11 04:51:14;;;;;;;10.48;6.80;;;2.80;99.90;;;;;;5074914;28;20251;-67
2022/01/11 04:53:40;;;;;;;7.00;6.30;;;2.80;99.90;;;;;;5075170;28;20264;-65
2022/01/11 04:56:06;;;;;;;11.37;7.33;;;2.80;99.90;;;;;;5074801;28;20442;-66
2022/01/11 04:58:32;;;;;;;12.07;9.20;;;2.80;99.90;;;;;;5074845;28;20230;-65
2022/01/11 05:00:57;;;;;;;6.80;6.10;;;2.80;99.90;;;;;;5074634;28;20478;-65
2022/01/11 05:03:23;;;;;;;15.20;9.23;;;2.80;99.90;;;;;;5063441;28;20428;-66
2022/01/11 05:05:49;;;;;;;10.00;7.77;;;2.80;99.90;;;;;;5054776;28;20192;-66
2022/01/11 05:08:14;;;;;;;9.90;8.03;;;2.80;99.90;;;;;;5054691;28;20193;-66
2022/01/11 05:10:42;;;;;;;12.17;7.47;;;2.70;99.90;;;;;;5054698;28;20955;-66
2022/01/11 05:13:15;;;;;;;10.98;8.45;;;2.70;99.90;;;;;;5054082;28;20185;-66
2022/01/11 05:15:41;;;;;;;14.88;8.60;;;2.70;99.90;;;;;;5054485;28;20268;-65
2022/01/11 05:18:08;;;;;;;14.70;9.63;;;2.60;99.90;;;;;;5054560;28;20272;-65
2022/01/11 05:20:35;;;;;;;14.38;10.13;;;2.60;99.90;;;;;;5054441;28;20411;-65
2022/01/11 05:23:00;;;;;;;10.10;9.15;;;2.60;99.90;;;;;;5054035;28;20502;-65
2022/01/11 05:25:26;;;;;;;17.63;12.40;;;2.60;99.90;;;;;;5054279;28;20191;-65
2022/01/11 05:27:52;;;;;;;16.55;10.75;;;2.50;99.90;;;;;;5053995;28;20566;-64
2022/01/11 05:30:19;;;;;;;12.85;8.10;;;2.60;99.90;;;;;;5054368;28;20197;-64
2022/01/11 05:32:44;;;;;;;12.93;9.35;;;2.60;99.90;;;;;;5053775;28;20176;-65
2022/01/11 05:35:12;;;;;;;15.70;11.47;;;2.60;99.90;;;;;;5054164;28;20174;-65
2022/01/11 05:37:37;;;;;;;15.68;8.85;;;2.60;99.90;;;;;;5054073;28;20205;-66
2022/01/11 05:40:05;;;;;;;12.93;10.60;;;2.60;99.90;;;;;;5054076;28;20165;-66
2022/01/11 05:42:31;;;;;;;11.30;7.78;;;2.60;99.90;;;;;;5053506;28;20180;-65
2022/01/11 05:44:57;;;;;;;14.27;8.80;;;2.70;99.90;;;;;;5053786;28;20264;-66
2022/01/11 05:47:23;;;;;;;14.63;8.17;;;2.60;99.90;;;;;;5053951;28;20197;-66
2022/01/11 05:49:50;;;;;;;18.92;11.23;;;2.70;99.90;;;;;;5053842;28;20444;-67
2022/01/11 05:52:16;;;;;;;16.63;8.95;;;2.80;99.90;;;;;;5053431;28;20632;-66
2022/01/11 05:54:42;;;;;;;18.42;9.77;;;2.80;99.90;;;;;;5053816;28;20181;-66
2022/01/11 05:57:07;;;;;;;13.20;7.73;;;2.80;99.90;;;;;;5053591;28;20254;-65
2022/01/11 05:59:33;;;;;;;21.93;9.27;;;2.80;99.90;;;;;;5053566;28;20920;-66
2022/01/11 06:01:59;;;;;;;16.23;10.53;;;2.80;99.90;;;;;;5053058;28;20416;-68
2022/01/11 06:04:24;;;;;;;12.30;7.90;;;2.70;99.90;;;;;;5072503;28;20246;-67
2022/01/11 06:06:51;;;;;;;28.30;9.60;;;2.70;99.90;;;;;;5073425;28;20267;-66
2022/01/11 06:09:17;;;;;;;14.85;8.70;;;2.80;99.90;;;;;;5073631;28;20173;-65
2022/01/11 06:11:42;;;;;;;20.08;10.15;;;2.80;99.90;;;;;;5072936;28;20168;-64
2022/01/11 06:14:08;;;;;;;11.63;7.90;;;2.80;99.90;;;;;;5073449;28;20263;-66
2022/01/11 06:16:34;;;;;;;12.73;6.87;;;2.80;99.90;;;;;;5073016;28;20208;-66
2022/01/11 06:18:59;;;;;;;15.30;8.43;;;2.80;99.90;;;;;;5071704;28;20176;-65
2022/01/11 06:21:25;;;;;;;8.50;7.60;;;2.80;99.90;;;;;;5072130;28;20204;-65
2022/01/11 06:23:51;;;;;;;12.20;8.63;;;2.80;99.90;;;;;;5073448;28;20255;-66
2022/01/11 06:26:17;;;;;;;11.17;8.37;;;2.80;99.90;;;;;;5073146;28;20180;-66
2022/01/11 06:28:43;;;;;;;10.20;7.18;;;2.80;99.90;;;;;;5072547;28;20251;-66
2022/01/11 06:31:09;;;;;;;10.63;9.35;;;2.80;99.90;;;;;;5072995;28;20182;-65
2022/01/11 06:33:35;;;;;;;18.00;10.18;;;2.80;99.90;;;;;;5072410;28;20651;-67
2022/01/11 06:36:00;;;;;;;14.27;7.80;;;2.80;99.90;;;;;;5071020;28;20249;-66
2022/01/11 06:38:26;;;;;;;13.30;10.27;;;2.80;99.90;;;;;;5072244;28;20940;-66
2022/01/11 06:40:52;;;;;;;11.73;7.90;;;2.90;99.90;;;;;;5073071;28;20192;-66
2022/01/11 06:43:17;;;;;;;20.37;9.40;;;2.90;99.90;;;;;;5072699;28;20169;-66
2022/01/11 06:45:43;;;;;;;16.97;10.20;;;3.00;99.90;;;;;;5072901;28;20207;-66
2022/01/11 06:48:10;;;;;;;10.33;7.50;;;3.00;99.90;;;;;;5071886;28;20423;-67
2022/01/11 06:50:36;;;;;;;13.63;8.38;;;3.00;99.90;;;;;;5073044;28;20164;-67
2022/01/11 06:53:02;;;;;;;13.23;8.07;;;3.00;99.90;;;;;;5072402;28;20184;-66
2022/01/11 06:55:29;;;;;;;8.87;7.20;;;3.10;99.90;;;;;;5072740;28;20623;-67
2022/01/11 06:57:54;;;;;;;11.73;8.45;;;3.00;99.90;;;;;;5072550;28;20482;-66
2022/01/11 07:00:20;;;;;;;10.67;7.60;;;3.00;99.90;;;;;;5072951;28;20242;-65
2022/01/11 07:02:49;;;;;;;13.30;10.03;;;3.00;99.90;;;;;;5067128;28;20172;-66
2022/01/11 07:05:16;;;;;;;11.70;8.43;;;3.00;99.90;;;;;;5052693;28;21009;-66
2022/01/11 07:07:42;;;;;;;9.57;8.55;;;2.90;99.90;;;;;;5052577;28;20207;-67
2022/01/11 07:10:08;;;;;;;12.55;9.65;;;2.90;99.90;;;;;;5053056;28;20525;-66
2022/01/11 07:12:34;;;;;;;15.20;9.43;;;2.90;99.90;;;;;;5052517;28;20239;-67
2022/01/11 07:14:59;;;;;;;14.17;10.30;;;2.90;99.90;;;;;;5052869;28;20721;-65
2022/01/11 07:17:25;;;;;;;18.87;10.40;;;2.90;99.90;;;;;;5052466;28;20451;-66
2022/01/11 07:19:51;;;;;;;9.10;6.40;;;2.90;99.90;;;;;;5052819;28;20176;-66
2022/01/11 07:22:17;;;;;;;17.63;10.65;;;2.80;99.90;;;;;;5052148;28;20197;-66
2022/01/11 07:24:42;;;;;;;12.03;10.80;;;2.80;99.90;;;;;;5052676;28;20197;-66
2022/01/11 07:27:08;;;;;;;24.73;12.33;;;2.80;99.90;;;;;;5052522;28;20674;-66
2022/01/11 07:29:34;;;;;;;21.77;9.33;;;2.70;99.90;;;;;;5063842;28;20172;-65
2022/01/11 07:32:00;;;;;;;8.17;7.33;;;2.70;99.90;;;;;;5072417;28;20490;-66
2022/01/11 07:34:25;;;;;;;18.10;11.00;;;2.80;99.90;;;;;;5072882;28;20589;-66
2022/01/11 07:36:51;;;;;;;17.43;9.17;;;2.80;99.90;;;;;;5072337;28;20750;-64
2022/01/11 07:39:17;;;;;;;13.73;8.70;;;2.80;99.90;;;;;;5074366;28;20161;-66
2022/01/11 07:41:43;;;;;;;11.63;7.80;;;2.80;99.90;;;;;;5076131;28;20511;-66
2022/01/11 07:44:09;;;;;;;18.00;10.10;;;2.90;99.90;;;;;;5076372;28;20403;-66
2022/01/11 07:46:35;;;;;;;19.77;8.88;;;2.90;99.90;;;;;;5076240;28;20555;-66
2022/01/11 07:49:02;;;;;;;11.18;8.15;;;2.90;99.90;;;;;;5076088;28;20187;-66
2022/01/11 07:51:29;;;;;;;16.85;9.07;;;3.00;99.90;;;;;;5075510;28;20169;-66
2022/01/11 07:53:55;;;;;;;15.20;10.15;;;2.90;99.90;;;;;;5075996;28;20196;-67
2022/01/11 07:56:21;;;;;;;15.80;10.18;;;3.00;99.90;;;;;;5076067;28;20210;-67
2022/01/11 07:58:47;;;;;;;11.30;10.20;;;2.90;99.90;;;;;;5075861;28;20247;-67
2022/01/11 08:01:13;;;;;;;9.43;6.50;;;2.90;99.90;;;;;;5075399;28;20403;-66
2022/01/11 08:03:38;;;;;;;13.63;9.23;;;3.00;99.90;;;;;;5062834;28;20518;-66
2022/01/11 08:06:04;;;;;;;10.83;8.27;;;2.90;99.90;;;;;;5054614;28;20244;-66
2022/01/11 08:08:30;;;;;;;16.37;9.57;;;3.00;99.90;;;;;;5055404;28;20247;-65
2022/01/11 08:10:56;;;;;;;9.98;8.88;;;3.10;99.90;;;;;;5055309;28;20408;-66
2022/01/11 08:13:23;;;;;;;15.03;11.10;;;3.10;99.90;;;;;;5055152;28;20219;-64
2022/01/11 08:15:49;;;;;;;11.60;8.77;;;3.20;99.90;;;;;;5055108;28;20231;-65
2022/01/11 08:18:15;;;;;;;11.48;8.15;;;3.20;99.90;;;;;;5055199;28;20225;-67
2022/01/11 08:20:40;;;;;;;11.43;10.23;;;3.30;99.90;;;;;;5055127;28;20204;-66
2022/01/11 08:23:06;;;;;;;13.40;9.50;;;3.30;99.90;;;;;;5055033;28;20172;-65
2022/01/11 08:25:32;;;;;;;11.43;10.20;;;3.30;99.90;;;;;;5055119;28;20170;-66
2022/01/11 08:27:59;;;;;;;27.45;11.38;;;3.30;99.90;;;;;;5055157;28;20193;-66
2022/01/11 08:30:25;;;;;;;15.50;7.97;;;3.30;99.90;;;;;;5054945;28;20188;-65
2022/01/11 08:32:51;;;;;;;12.75;8.32;;;3.40;99.90;;;;;;5054514;28;20192;-66
2022/01/11 08:35:17;;;;;;;20.63;11.75;;;3.50;99.90;;;;;;5054925;28;20165;-68
2022/01/11 08:37:43;;;;;;;17.37;10.47;;;3.60;99.90;;;;;;5054869;28;20684;-66
2022/01/11 08:40:10;;;;;;;12.87;9.70;;;3.60;99.90;;;;;;5053695;28;20411;-66
2022/01/11 08:42:36;;;;;;;22.33;8.63;;;3.60;99.90;;;;;;5054440;28;20403;-67
2022/01/11 08:45:03;;;;;;;14.63;9.57;;;3.70;99.90;;;;;;5054881;28;20169;-66
2022/01/11 08:47:30;;;;;;;13.25;10.02;;;3.60;99.90;;;;;;5054814;28;20434;-68
2022/01/11 08:49:59;;;;;;;14.55;7.93;;;3.70;99.90;;;;;;5054216;28;20257;-67
2022/01/11 08:52:28;;;;;;;14.43;9.93;;;3.70;99.90;;;;;;5072210;28;20267;-66
2022/01/11 08:54:55;;;;;;;13.38;8.60;;;3.80;99.90;;;;;;5073662;28;20165;-67
2022/01/11 08:57:21;;;;;;;19.48;10.18;;;3.90;99.90;;;;;;5073756;28;20204;-66
2022/01/11 08:59:47;;;;;;;20.63;10.55;;;4.00;99.90;;;;;;5074612;28;20169;-67
2022/01/11 09:02:14;;;;;;;15.40;9.43;;;4.10;99.90;;;;;;5072878;28;20635;-68
2022/01/11 09:04:40;;;;;;;11.55;8.05;;;4.00;99.90;;;;;;5054421;28;20181;-66
2022/01/11 09:07:06;;;;;;;8.82;8.00;;;4.10;99.90;;;;;;5054480;28;20194;-67
2022/01/11 09:09:32;;;;;;;15.20;10.55;;;4.00;99.90;;;;;;5054611;28;20558;-68
2022/01/11 09:11:59;;;;;;;16.67;9.50;;;4.10;99.90;;;;;;5052809;28;20254;-66
2022/01/11 09:14:25;;;;;;;18.83;12.93;;;4.10;99.90;;;;;;5054319;28;20177;-67
2022/01/11 09:16:51;;;;;;;9.23;7.73;;;4.10;99.90;;;;;;5054201;28;20235;-66
2022/01/11 09:19:20;;;;;;;15.45;11.02;;;4.10;99.90;;;;;;5054169;28;20203;-67
2022/01/11 09:21:46;;;;;;;13.65;10.32;;;4.20;99.90;;;;;;5053783;28;20628;-66
2022/01/11 09:24:13;;;;;;;10.70;8.67;;;4.20;99.90;;;;;;5054032;28;20261;-68
2022/01/11 09:26:39;;;;;;;13.18;8.80;;;4.20;99.90;;;;;;5053862;28;20436;-67
2022/01/11 09:29:05;;;;;;;14.98;9.93;;;4.20;99.90;;;;;;5053845;28;20181;-67
2022/01/11 09:31:31;;;;;;;15.47;9.80;;;4.30;99.90;;;;;;5052227;28;20574;-67
2022/01/11 09:33:57;;;;;;;13.77;9.00;;;4.30;99.90;;;;;;5053852;28;20475;-67
2022/01/11 09:36:23;;;;;;;17.02;10.65;;;4.30;99.90;;;;;;5053791;28;20197;-67
2022/01/11 09:38:49;;;;;;;14.83;12.57;;;4.30;99.90;;;;;;5053997;28;20570;-66
2022/01/11 09:41:15;;;;;;;14.40;9.90;;;4.30;99.90;;;;;;5053475;28;20983;-67
2022/01/11 09:43:42;;;;;;;15.60;8.90;;;4.30;99.90;;;;;;5053864;28;20173;-67
2022/01/11 09:46:08;;;;;;;12.25;9.00;;;4.30;99.90;;;;;;5053536;28;20379;-67
2022/01/11 09:48:35;;;;;;;14.27;9.87;;;4.40;99.90;;;;;;5054089;28;20171;-68
2022/01/11 09:51:01;;;;;;;18.35;10.00;;;4.40;99.90;;;;;;5052151;28;20173;-68
2022/01/11 09:53:27;;;;;;;12.40;9.13;;;4.50;99.90;;;;;;5053571;28;20185;-66
2022/01/11 09:55:53;;;;;;;18.25;8.85;;;4.50;99.90;;;;;;5052238;28;20173;-65
2022/01/11 09:58:19;;;;;;;14.70;8.90;;;4.60;99.90;;;;;;5053633;28;20192;-66
2022/01/11 10:00:46;;;;;;;16.27;11.23;;;4.60;99.90;;;;;;5053478;28;20169;-65
2022/01/11 10:03:11;;;;;;;12.15;9.10;;;4.60;99.90;;;;;;5061476;28;20261;-66
2022/01/11 10:05:37;;;;;;;15.00;9.80;;;4.60;99.90;;;;;;5073665;28;20699;-65
2022/01/11 10:08:27;;;;;;;15.98;10.90;;;4.70;99.90;;;;;;5073287;28;20216;-67
2022/01/11 10:10:57;;;;;;;13.73;10.63;;;4.80;99.90;;;;;;5073222;28;20256;-65
2022/01/11 10:13:29;;;;;;;16.90;11.70;;;4.90;99.90;;;;;;5073106;28;20184;-64
2022/01/11 10:15:55;;;;;;;14.25;9.98;;;4.90;99.90;;;;;;5073138;28;20166;-66
2022/01/11 10:18:36;;;;;;;15.77;8.90;;;4.90;99.90;;;;;;5073127;28;20177;-65
2022/01/11 10:21:25;;;;;;;13.27;8.15;;;5.00;99.90;;;;;;5073045;28;20482;-65
2022/01/11 10:23:50;;;;;;;12.27;9.95;;;5.00;99.90;;;;;;5072906;28;20230;-63
2022/01/11 10:26:43;;;;;;;18.20;9.13;;;5.20;99.90;;;;;;5071899;28;20182;-65
2022/01/11 10:29:40;;;;;;;11.48;8.50;;;5.30;99.90;;;;;;5073323;28;20177;-65
2022/01/11 10:32:20;;;;;;;10.90;8.73;;;5.50;99.90;;;;;;5073128;28;20636;-63
2022/01/11 10:34:49;;;;;;;14.85;9.13;;;5.70;99.90;;;;;;5073123;28;20175;-64
2022/01/11 10:37:26;;;;;;;12.85;8.65;;;5.80;99.90;;;;;;5072511;28;21031;-65
2022/01/11 10:40:05;;;;;;;8.75;7.53;;;5.80;99.90;;;;;;5071836;28;20557;-63
2022/01/11 10:42:33;;;;;;;11.43;7.65;;;5.90;99.90;;;;;;5072386;28;20174;-64
2022/01/11 10:45:09;;;;;;;13.32;8.45;;;5.90;99.90;;;;;;5072481;28;20629;-64
2022/01/11 10:47:38;;;;;;;13.80;8.60;;;6.00;99.90;;;;;;5072025;28;20196;-64
2022/01/11 10:50:11;;;;;;;20.55;9.27;;;6.20;99.90;;;;;;5071629;28;20184;-63
2022/01/11 10:52:37;;;;;;;15.00;7.68;;;6.30;99.90;;;;;;5072522;28;20179;-63
2022/01/11 10:55:07;;;;;;;9.68;6.97;;;6.30;99.90;;;;;;5072821;28;20201;-64
2022/01/11 10:57:39;;;;;;;10.95;8.55;;;6.40;99.90;;;;;;5072617;28;20203;-63
2022/01/11 11:00:19;;;;;;;12.85;9.20;;;6.30;99.90;;;;;;5072776;28;20680;-65
2022/01/11 11:03:15;;;;;;;11.90;7.88;;;6.40;99.90;;;;;;5066954;28;20237;-65
2022/01/11 11:05:47;;;;;;;11.68;6.25;;;6.50;99.90;;;;;;5050592;28;20191;-63
2022/01/11 11:08:14;;;;;;;12.10;7.22;;;6.50;99.90;;;;;;5052623;28;20193;-64
2022/01/11 11:10:58;;;;;;;11.18;6.88;;;6.50;99.90;;;;;;5051332;28;20173;-64
2022/01/11 11:13:27;;;;;;;13.20;10.40;;;6.60;99.90;;;;;;5052808;28;20180;-64
2022/01/11 11:15:55;;;;;;;8.30;6.57;;;6.60;99.90;;;;;;5056489;28;20624;-62
2022/01/11 11:18:29;;;;;;;9.10;6.93;;;6.60;99.90;;;;;;5056282;28;20670;-64
2022/01/11 11:20:56;;;;;;;8.93;7.60;;;6.70;99.90;;;;;;5056398;28;20238;-62
2022/01/11 11:23:22;;;;;;;13.13;7.53;;;6.80;99.90;;;;;;5055853;28;20181;-67
2022/01/11 11:25:48;;;;;;;13.33;7.90;;;6.80;99.90;;;;;;5056457;28;20631;-64
2022/01/11 11:28:14;;;;;;;12.63;7.57;;;6.80;99.90;;;;;;5056059;28;20419;-65
2022/01/11 11:30:40;;;;;;;9.70;6.45;;;6.80;99.90;;;;;;5056591;28;20414;-67
2022/01/11 11:33:06;;;;;;;9.60;7.17;;;7.00;99.90;;;;;;5055973;28;20173;-65
2022/01/11 11:35:33;;;;;;;10.05;7.30;;;7.10;99.90;;;;;;5056377;28;20377;-63
2022/01/11 11:38:03;;;;;;;14.20;6.35;;;7.30;99.90;;;;;;5056023;28;20212;-65
2022/01/11 11:40:30;;;;;;;10.55;7.13;;;7.30;99.90;;;;;;5055057;28;20520;-64
2022/01/11 11:43:04;;;;;;;10.48;7.72;;;7.30;99.90;;;;;;5055580;28;20170;-65
2022/01/11 11:45:36;;;;;;;6.60;5.95;;;7.40;99.90;;;;;;5055837;28;20222;-65
2022/01/11 11:48:16;;;;;;;5.20;3.95;;;7.40;99.90;;;;;;5055850;28;20212;-64
2022/01/11 11:50:49;;;;;;;3.70;2.40;;;7.30;99.90;;;;;;5074843;28;20184;-64
2022/01/11 11:53:31;;;;;;;3.10;2.33;;;7.40;99.90;;;;;;5074167;28;20263;-66
2022/01/11 11:56:18;;;;;;;3.88;3.47;;;7.30;99.90;;;;;;5075388;28;20176;-66
2022/01/11 11:58:47;;;;;;;3.47;2.80;;;7.20;99.90;;;;;;5076165;28;20534;-63
2022/01/11 12:01:41;;;;;;;3.88;3.45;;;7.20;99.90;;;;;;5075485;28;20181;-66
2022/01/11 12:04:16;;;;;;;3.90;2.35;;;7.20;99.90;;;;;;5058940;28;20188;-63
2022/01/11 12:06:43;;;;;;;3.83;2.83;;;7.20;99.90;;;;;;5055391;28;20188;-64
2022/01/11 12:09:17;;;;;;;5.40;3.28;;;7.10;99.90;;;;;;5055710;28;20258;-64
2022/01/11 12:11:46;;;;;;;4.65;2.88;;;7.10;99.90;;;;;;5055202;28;20274;-65
2022/01/11 12:14:32;;;;;;;4.07;3.28;;;6.90;99.90;;;;;;5055337;28;20527;-66
2022/01/11 12:17:16;;;;;;;4.47;2.85;;;6.90;99.90;;;;;;5057006;28;20574;-65
2022/01/11 12:19:49;;;;;;;1.88;1.70;;;6.90;99.90;;;;;;5075314;28;20255;-64
2022/01/11 12:22:18;;;;;;;1.70;1.52;;;6.80;99.90;;;;;;5075128;28;20180;-67
2022/01/11 12:24:46;;;;;;;1.65;1.55;;;6.70;99.90;;;;;;5074824;28;20180;-65
2022/01/11 12:27:15;;;;;;;2.63;2.42;;;6.70;99.90;;;;;;5074962;28;20634;-67
2022/01/11 12:30:09;;;;;;;2.05;1.77;;;6.60;99.90;;;;;;5075520;28;20249;-66
2022/01/11 12:33:13;;;;;;;1.27;1.20;;;6.50;99.90;;;;;;5074963;28;20167;-65
2022/01/11 12:36:01;;;;;;;2.55;1.48;;;6.50;99.90;;;;;;5075298;28;20577;-64
2022/01/11 12:38:33;;;;;;;1.55;1.42;;;6.40;99.90;;;;;;5055634;28;20208;-66
2022/01/11 12:41:37;;;;;;;1.70;1.35;;;6.40;99.90;;;;;;5055256;28;20171;-65
2022/01/11 12:44:33;;;;;;;2.08;1.88;;;6.30;99.90;;;;;;5055192;28;20179;-66
2022/01/11 12:47:11;;;;;;;1.80;1.70;;;6.30;99.90;;;;;;5054932;28;20194;-67
2022/01/11 12:49:44;;;;;;;3.83;1.75;;;6.10;99.90;;;;;;5055071;28;20184;-66
2022/01/11 12:52:12;;;;;;;2.65;1.75;;;6.10;99.90;;;;;;5054857;28;20171;-64
2022/01/11 12:54:48;;;;;;;2.08;1.90;;;6.10;99.90;;;;;;5054820;28;20171;-62
2022/01/11 12:57:17;;;;;;;1.63;1.50;;;6.00;99.90;;;;;;5053490;28;20683;-63